sensor_id;sensor_type;location;lat;lon;timestamp;temperature;humidity
7216;DHT22;3649;48.798;9.798;2023-10-19T00:00:53;14.40;99.90
7216;DHT22;3649;48.798;9.798;2023-10-19T00:03:23;14.40;99.90
7216;DHT22;3649;48.798;9.798;2023-10-19T00:05:51;14.40;99.90
7216;DHT22;3649;48.798;9.798;2023-10-19T00:08:18;14.40;99.90
7216;DHT22;3649;48.798;9.798;2023-10-19T00:10:51;14.40;99.90
7216;DHT22;3649;48.798;9.798;2023-10-19T00:13:38;14.40;99.90
7216;DHT22;3649;48.798;9.798;2023-10-19T00:16:08;14.50;99.90
7216;DHT22;3649;48.798;9.798;2023-10-19T00:18:49;14.40;99.90
7216;DHT22;3649;48.798;9.798;2023-10-19T00:21:16;14.40;99.90
7216;DHT22;3649;48.798;9.798;2023-10-19T00:23:43;14.40;99.90
7216;DHT22;3649;48.798;9.798;2023-10-19T00:26:10;14.50;99.90
7216;DHT22;3649;48.798;9.798;2023-10-19T00:28:42;14.50;99.90
7216;DHT22;3649;48.798;9.798;2023-10-19T00:31:12;14.50;99.90
7216;DHT22;3649;48.798;9.798;2023-10-19T00:33:40;14.40;99.90
7216;DHT22;3649;48.798;9.798;2023-10-19T00:36:10;14.40;99.90
7216;DHT22;3649;48.798;9.798;2023-10-19T00:38:41;14.40;99.90
7216;DHT22;3649;48.798;9.798;2023-10-19T00:41:19;14.50;99.90
7216;DHT22;3649;48.798;9.798;2023-10-19T00:43:54;14.40;99.90
7216;DHT22;3649;48.798;9.798;2023-10-19T00:46:32;14.50;99.90
7216;DHT22;3649;48.798;9.798;2023-10-19T00:49:01;14.50;99.90
7216;DHT22;3649;48.798;9.798;2023-10-19T00:51:44;14.50;99.90
7216;DHT22;3649;48.798;9.798;2023-10-19T00:54:28;14.50;99.90
7216;DHT22;3649;48.798;9.798;2023-10-19T00:57:19;14.60;99.90
7216;DHT22;3649;48.798;9.798;2023-10-19T00:59:47;14.50;99.90
7216;DHT22;3649;48.798;9.798;2023-10-19T01:02:15;14.50;99.90
7216;DHT22;3649;48.798;9.798;2023-10-19T01:05:09;14.50;99.90
7216;DHT22;3649;48.798;9.798;2023-10-19T01:07:39;14.50;99.90
7216;DHT22;3649;48.798;9.798;2023-10-19T01:10:11;14.40;99.90
7216;DHT22;3649;48.798;9.798;2023-10-19T01:12:39;14.10;99.90
7216;DHT22;3649;48.798;9.798;2023-10-19T01:17:46;14.50;99.90
7216;DHT22;3649;48.798;9.798;2023-10-19T01:20:15;14.40;99.90
7216;DHT22;3649;48.798;9.798;2023-10-19T01:23:08;14.50;99.90
7216;DHT22;3649;48.798;9.798;2023-10-19T01:25:42;14.50;99.90
7216;DHT22;3649;48.798;9.798;2023-10-19T01:28:17;14.50;99.90
7216;DHT22;3649;48.798;9.798;2023-10-19T01:30:45;14.40;99.90
7216;DHT22;3649;48.798;9.798;2023-10-19T01:33:12;14.40;99.90
7216;DHT22;3649;48.798;9.798;2023-10-19T01:35:40;14.40;99.90
7216;DHT22;3649;48.798;9.798;2023-10-19T01:38:27;14.50;99.90
7216;DHT22;3649;48.798;9.798;2023-10-19T01:41:02;14.50;99.90
7216;DHT22;3649;48.798;9.798;2023-10-19T01:43:32;14.50;99.90
7216;DHT22;3649;48.798;9.798;2023-10-19T01:46:00;14.50;99.90
7216;DHT22;3649;48.798;9.798;2023-10-19T01:48:32;14.50;99.90
7216;DHT22;3649;48.798;9.798;2023-10-19T01:51:04;14.60;99.90
7216;DHT22;3649;48.798;9.798;2023-10-19T01:53:35;14.60;99.90
7216;DHT22;3649;48.798;9.798;2023-10-19T01:56:03;14.60;99.90
7216;DHT22;3649;48.798;9.798;2023-10-19T01:58:32;14.60;99.90
7216;DHT22;3649;48.798;9.798;2023-10-19T02:01:04;15.60;99.90
7216;DHT22;3649;48.798;9.798;2023-10-19T02:04:03;14.60;99.90
7216;DHT22;3649;48.798;9.798;2023-10-19T02:06:33;14.60;99.90
7216;DHT22;3649;48.798;9.798;2023-10-19T02:09:11;14.60;99.90
7216;DHT22;3649;48.798;9.798;2023-10-19T02:11:53;14.60;99.90
7216;DHT22;3649;48.798;9.798;2023-10-19T02:14:22;14.60;99.90
7216;DHT22;3649;48.798;9.798;2023-10-19T02:16:56;14.60;99.90
7216;DHT22;3649;48.798;9.798;2023-10-19T02:19:25;14.60;99.90
7216;DHT22;3649;48.798;9.798;2023-10-19T02:21:58;14.50;99.90
7216;DHT22;3649;48.798;9.798;2023-10-19T02:24:26;14.50;99.90
7216;DHT22;3649;48.798;9.798;2023-10-19T02:26:55;14.60;99.90
7216;DHT22;3649;48.798;9.798;2023-10-19T02:29:22;14.60;99.90
7216;DHT22;3649;48.798;9.798;2023-10-19T02:31:50;14.50;99.90
7216;DHT22;3649;48.798;9.798;2023-10-19T02:34:17;14.50;99.90
7216;DHT22;3649;48.798;9.798;2023-10-19T02:36:45;14.50;99.90
7216;DHT22;3649;48.798;9.798;2023-10-19T02:39:13;14.50;99.90
7216;DHT22;3649;48.798;9.798;2023-10-19T02:41:43;14.50;99.90
7216;DHT22;3649;48.798;9.798;2023-10-19T02:44:13;14.60;99.90
7216;DHT22;3649;48.798;9.798;2023-10-19T02:50:17;14.60;99.90
7216;DHT22;3649;48.798;9.798;2023-10-19T02:52:49;14.60;99.90
7216;DHT22;3649;48.798;9.798;2023-10-19T02:55:16;14.70;99.90
7216;DHT22;3649;48.798;9.798;2023-10-19T02:57:47;14.70;99.90
7216;DHT22;3649;48.798;9.798;2023-10-19T03:00:14;14.70;99.90
7216;DHT22;3649;48.798;9.798;2023-10-19T03:02:41;14.80;99.90
7216;DHT22;3649;48.798;9.798;2023-10-19T03:05:08;14.70;99.90
7216;DHT22;3649;48.798;9.798;2023-10-19T03:07:42;14.80;99.90
7216;DHT22;3649;48.798;9.798;2023-10-19T03:10:11;14.80;99.90
7216;DHT22;3649;48.798;9.798;2023-10-19T03:13:10;14.70;99.90
7216;DHT22;3649;48.798;9.798;2023-10-19T03:15:43;14.80;99.90
7216;DHT22;3649;48.798;9.798;2023-10-19T03:18:10;14.80;99.90
7216;DHT22;3649;48.798;9.798;2023-10-19T03:20:38;14.80;99.90
7216;DHT22;3649;48.798;9.798;2023-10-19T03:23:05;14.80;99.90
7216;DHT22;3649;48.798;9.798;2023-10-19T03:25:32;14.80;99.90
7216;DHT22;3649;48.798;9.798;2023-10-19T03:28:16;14.80;99.90
7216;DHT22;3649;48.798;9.798;2023-10-19T03:30:43;14.90;99.90
7216;DHT22;3649;48.798;9.798;2023-10-19T03:33:10;14.90;99.90
7216;DHT22;3649;48.798;9.798;2023-10-19T03:35:39;14.90;99.90
7216;DHT22;3649;48.798;9.798;2023-10-19T03:38:09;15.00;99.90
7216;DHT22;3649;48.798;9.798;2023-10-19T03:40:43;15.00;99.90
7216;DHT22;3649;48.798;9.798;2023-10-19T03:43:18;14.90;99.90
7216;DHT22;3649;48.798;9.798;2023-10-19T03:45:48;14.90;99.90
7216;DHT22;3649;48.798;9.798;2023-10-19T03:48:19;14.80;99.90
7216;DHT22;3649;48.798;9.798;2023-10-19T03:51:04;14.80;99.90
7216;DHT22;3649;48.798;9.798;2023-10-19T03:53:31;14.80;99.90
7216;DHT22;3649;48.798;9.798;2023-10-19T03:55:59;14.90;99.90
7216;DHT22;3649;48.798;9.798;2023-10-19T03:58:26;14.90;99.90
7216;DHT22;3649;48.798;9.798;2023-10-19T04:00:57;14.90;99.90
7216;DHT22;3649;48.798;9.798;2023-10-19T04:03:28;14.90;99.90
7216;DHT22;3649;48.798;9.798;2023-10-19T04:05:57;15.00;99.90
7216;DHT22;3649;48.798;9.798;2023-10-19T04:08:28;14.90;99.90
7216;DHT22;3649;48.798;9.798;2023-10-19T04:10:58;14.90;99.90
7216;DHT22;3649;48.798;9.798;2023-10-19T04:13:47;14.90;99.90
7216;DHT22;3649;48.798;9.798;2023-10-19T04:16:14;14.90;99.90
7216;DHT22;3649;48.798;9.798;2023-10-19T04:18:40;14.90;99.90
7216;DHT22;3649;48.798;9.798;2023-10-19T04:21:10;14.80;99.90
7216;DHT22;3649;48.798;9.798;2023-10-19T04:23:37;14.80;99.90
7216;DHT22;3649;48.798;9.798;2023-10-19T04:26:04;14.80;99.90
7216;DHT22;3649;48.798;9.798;2023-10-19T04:28:38;14.70;99.90
7216;DHT22;3649;48.798;9.798;2023-10-19T04:31:08;14.70;99.90
7216;DHT22;3649;48.798;9.798;2023-10-19T04:33:40;14.70;99.90
7216;DHT22;3649;48.798;9.798;2023-10-19T04:36:09;14.70;99.90
7216;DHT22;3649;48.798;9.798;2023-10-19T04:38:38;15.00;99.90
7216;DHT22;3649;48.798;9.798;2023-10-19T04:41:06;14.80;99.90
7216;DHT22;3649;48.798;9.798;2023-10-19T04:43:37;14.70;99.90
7216;DHT22;3649;48.798;9.798;2023-10-19T04:46:08;14.60;99.90
7216;DHT22;3649;48.798;9.798;2023-10-19T04:48:40;14.60;99.90
7216;DHT22;3649;48.798;9.798;2023-10-19T04:51:08;14.60;99.90
7216;DHT22;3649;48.798;9.798;2023-10-19T04:53:38;14.60;99.90
7216;DHT22;3649;48.798;9.798;2023-10-19T04:56:06;14.70;99.90
7216;DHT22;3649;48.798;9.798;2023-10-19T04:58:35;14.70;99.90
7216;DHT22;3649;48.798;9.798;2023-10-19T05:01:03;14.80;99.90
7216;DHT22;3649;48.798;9.798;2023-10-19T05:03:30;14.70;99.90
7216;DHT22;3649;48.798;9.798;2023-10-19T05:05:58;14.70;99.90
7216;DHT22;3649;48.798;9.798;2023-10-19T05:08:25;14.70;99.90
7216;DHT22;3649;48.798;9.798;2023-10-19T05:10:52;14.70;99.90
7216;DHT22;3649;48.798;9.798;2023-10-19T05:13:23;14.70;99.90
7216;DHT22;3649;48.798;9.798;2023-10-19T05:15:53;14.70;99.90
7216;DHT22;3649;48.798;9.798;2023-10-19T05:18:21;14.70;99.90
7216;DHT22;3649;48.798;9.798;2023-10-19T05:20:49;14.70;99.90
7216;DHT22;3649;48.798;9.798;2023-10-19T05:23:17;14.70;99.90
7216;DHT22;3649;48.798;9.798;2023-10-19T05:25:46;14.50;99.90
7216;DHT22;3649;48.798;9.798;2023-10-19T05:28:13;14.60;99.90
7216;DHT22;3649;48.798;9.798;2023-10-19T05:30:41;14.60;99.90
7216;DHT22;3649;48.798;9.798;2023-10-19T05:33:08;14.50;99.90
7216;DHT22;3649;48.798;9.798;2023-10-19T05:35:35;14.60;99.90
7216;DHT22;3649;48.798;9.798;2023-10-19T05:38:08;14.60;99.90
7216;DHT22;3649;48.798;9.798;2023-10-19T05:40:35;14.60;99.90
7216;DHT22;3649;48.798;9.798;2023-10-19T05:43:02;14.50;99.90
7216;DHT22;3649;48.798;9.798;2023-10-19T05:45:29;14.50;99.90
7216;DHT22;3649;48.798;9.798;2023-10-19T05:47:56;14.40;99.90
7216;DHT22;3649;48.798;9.798;2023-10-19T05:50:27;14.40;99.90
7216;DHT22;3649;48.798;9.798;2023-10-19T05:52:55;14.40;99.90
7216;DHT22;3649;48.798;9.798;2023-10-19T05:55:22;14.40;99.90
7216;DHT22;3649;48.798;9.798;2023-10-19T05:57:50;14.40;99.90
7216;DHT22;3649;48.798;9.798;2023-10-19T06:00:17;14.40;99.90
7216;DHT22;3649;48.798;9.798;2023-10-19T06:02:48;14.40;99.90
7216;DHT22;3649;48.798;9.798;2023-10-19T06:05:19;14.40;99.90
7216;DHT22;3649;48.798;9.798;2023-10-19T06:07:49;14.40;99.90
7216;DHT22;3649;48.798;9.798;2023-10-19T06:10:18;14.40;99.90
7216;DHT22;3649;48.798;9.798;2023-10-19T06:12:49;14.40;99.90
7216;DHT22;3649;48.798;9.798;2023-10-19T06:15:18;14.50;99.90
7216;DHT22;3649;48.798;9.798;2023-10-19T06:17:47;14.50;99.90
7216;DHT22;3649;48.798;9.798;2023-10-19T06:20:16;14.40;99.90
7216;DHT22;3649;48.798;9.798;2023-10-19T06:22:57;14.40;99.90
7216;DHT22;3649;48.798;9.798;2023-10-19T06:25:31;14.40;99.90
7216;DHT22;3649;48.798;9.798;2023-10-19T06:27:58;14.40;99.90
7216;DHT22;3649;48.798;9.798;2023-10-19T06:30:26;14.40;99.90
7216;DHT22;3649;48.798;9.798;2023-10-19T06:32:55;14.50;99.90
7216;DHT22;3649;48.798;9.798;2023-10-19T06:35:23;14.50;99.90
7216;DHT22;3649;48.798;9.798;2023-10-19T06:37:50;14.50;99.90
7216;DHT22;3649;48.798;9.798;2023-10-19T06:40:17;14.50;99.90
7216;DHT22;3649;48.798;9.798;2023-10-19T06:42:45;14.50;99.90
7216;DHT22;3649;48.798;9.798;2023-10-19T06:45:13;14.50;99.90
7216;DHT22;3649;48.798;9.798;2023-10-19T06:47:44;14.50;99.90
7216;DHT22;3649;48.798;9.798;2023-10-19T06:50:13;14.60;99.90
7216;DHT22;3649;48.798;9.798;2023-10-19T06:52:44;14.50;99.90
7216;DHT22;3649;48.798;9.798;2023-10-19T06:55:11;14.60;99.90
7216;DHT22;3649;48.798;9.798;2023-10-19T06:57:44;14.50;99.90
7216;DHT22;3649;48.798;9.798;2023-10-19T07:00:12;14.60;99.90
7216;DHT22;3649;48.798;9.798;2023-10-19T07:02:43;14.60;99.90
7216;DHT22;3649;48.798;9.798;2023-10-19T07:05:10;14.60;99.90
7216;DHT22;3649;48.798;9.798;2023-10-19T07:07:40;14.60;99.90
7216;DHT22;3649;48.798;9.798;2023-10-19T07:10:09;14.70;99.90
7216;DHT22;3649;48.798;9.798;2023-10-19T07:12:36;14.70;99.90
7216;DHT22;3649;48.798;9.798;2023-10-19T07:15:07;14.70;99.90
7216;DHT22;3649;48.798;9.798;2023-10-19T07:17:35;14.80;99.90
7216;DHT22;3649;48.798;9.798;2023-10-19T07:20:08;14.80;99.90
7216;DHT22;3649;48.798;9.798;2023-10-19T07:22:42;14.70;99.90
7216;DHT22;3649;48.798;9.798;2023-10-19T07:25:09;14.80;99.90
7216;DHT22;3649;48.798;9.798;2023-10-19T07:27:36;14.80;99.90
7216;DHT22;3649;48.798;9.798;2023-10-19T07:30:05;14.90;99.90
7216;DHT22;3649;48.798;9.798;2023-10-19T07:32:36;14.90;99.90
7216;DHT22;3649;48.798;9.798;2023-10-19T07:35:03;14.90;99.90
7216;DHT22;3649;48.798;9.798;2023-10-19T07:37:30;14.90;99.90
7216;DHT22;3649;48.798;9.798;2023-10-19T07:39:58;14.90;99.90
7216;DHT22;3649;48.798;9.798;2023-10-19T07:42:25;15.00;99.90
7216;DHT22;3649;48.798;9.798;2023-10-19T07:44:52;14.90;99.90
7216;DHT22;3649;48.798;9.798;2023-10-19T07:47:19;14.90;99.90
7216;DHT22;3649;48.798;9.798;2023-10-19T07:49:46;14.80;99.90
7216;DHT22;3649;48.798;9.798;2023-10-19T07:52:15;14.80;99.90
7216;DHT22;3649;48.798;9.798;2023-10-19T07:54:42;14.80;99.90
7216;DHT22;3649;48.798;9.798;2023-10-19T07:57:09;14.80;99.90
7216;DHT22;3649;48.798;9.798;2023-10-19T07:59:39;14.80;99.90
7216;DHT22;3649;48.798;9.798;2023-10-19T08:02:06;14.80;99.90
7216;DHT22;3649;48.798;9.798;2023-10-19T08:04:35;14.80;99.90
7216;DHT22;3649;48.798;9.798;2023-10-19T08:07:03;14.80;99.90
7216;DHT22;3649;48.798;9.798;2023-10-19T08:09:31;14.70;99.90
7216;DHT22;3649;48.798;9.798;2023-10-19T08:12:01;14.70;99.90
7216;DHT22;3649;48.798;9.798;2023-10-19T08:14:32;14.80;99.90
7216;DHT22;3649;48.798;9.798;2023-10-19T08:16:59;14.90;99.90
7216;DHT22;3649;48.798;9.798;2023-10-19T08:19:29;14.80;99.90
7216;DHT22;3649;48.798;9.798;2023-10-19T08:21:57;14.90;99.90
7216;DHT22;3649;48.798;9.798;2023-10-19T08:24:24;14.80;99.90
7216;DHT22;3649;48.798;9.798;2023-10-19T08:26:51;14.80;99.90
7216;DHT22;3649;48.798;9.798;2023-10-19T08:29:18;14.90;99.90
7216;DHT22;3649;48.798;9.798;2023-10-19T08:31:47;14.90;99.90
7216;DHT22;3649;48.798;9.798;2023-10-19T08:34:15;15.00;99.90
7216;DHT22;3649;48.798;9.798;2023-10-19T08:36:42;15.00;99.90
7216;DHT22;3649;48.798;9.798;2023-10-19T08:39:10;15.00;99.90
7216;DHT22;3649;48.798;9.798;2023-10-19T08:41:39;15.30;99.90
7216;DHT22;3649;48.798;9.798;2023-10-19T08:44:08;15.20;99.90
7216;DHT22;3649;48.798;9.798;2023-10-19T08:46:42;15.20;99.90
7216;DHT22;3649;48.798;9.798;2023-10-19T08:49:15;15.20;99.90
7216;DHT22;3649;48.798;9.798;2023-10-19T08:51:46;15.30;99.90
7216;DHT22;3649;48.798;9.798;2023-10-19T08:54:14;15.30;99.90
7216;DHT22;3649;48.798;9.798;2023-10-19T08:56:42;15.40;99.90
7216;DHT22;3649;48.798;9.798;2023-10-19T08:59:09;15.40;99.90
7216;DHT22;3649;48.798;9.798;2023-10-19T09:01:39;15.50;99.90
7216;DHT22;3649;48.798;9.798;2023-10-19T09:04:06;15.60;99.90
7216;DHT22;3649;48.798;9.798;2023-10-19T09:06:36;15.50;99.90
7216;DHT22;3649;48.798;9.798;2023-10-19T09:09:10;15.60;99.90
7216;DHT22;3649;48.798;9.798;2023-10-19T09:11:47;15.70;99.90
7216;DHT22;3649;48.798;9.798;2023-10-19T09:14:15;15.70;99.90
7216;DHT22;3649;48.798;9.798;2023-10-19T09:16:56;15.70;99.90
7216;DHT22;3649;48.798;9.798;2023-10-19T09:19:45;15.70;99.90
7216;DHT22;3649;48.798;9.798;2023-10-19T09:22:15;15.80;99.90
7216;DHT22;3649;48.798;9.798;2023-10-19T09:24:46;15.80;99.90
7216;DHT22;3649;48.798;9.798;2023-10-19T09:27:13;15.90;99.90
7216;DHT22;3649;48.798;9.798;2023-10-19T09:29:41;15.90;99.90
7216;DHT22;3649;48.798;9.798;2023-10-19T09:32:08;17.30;99.90
7216;DHT22;3649;48.798;9.798;2023-10-19T09:34:36;16.00;99.90
7216;DHT22;3649;48.798;9.798;2023-10-19T09:37:04;16.00;99.90
7216;DHT22;3649;48.798;9.798;2023-10-19T09:39:31;16.00;99.90
7216;DHT22;3649;48.798;9.798;2023-10-19T09:42:05;16.10;99.90
7216;DHT22;3649;48.798;9.798;2023-10-19T09:44:39;16.10;99.90
7216;DHT22;3649;48.798;9.798;2023-10-19T09:47:11;16.20;99.90
7216;DHT22;3649;48.798;9.798;2023-10-19T09:49:40;16.20;99.90
7216;DHT22;3649;48.798;9.798;2023-10-19T09:52:08;16.30;99.90
7216;DHT22;3649;48.798;9.798;2023-10-19T09:57:46;16.40;99.90
7216;DHT22;3649;48.798;9.798;2023-10-19T10:00:15;16.40;99.90
7216;DHT22;3649;48.798;9.798;2023-10-19T10:02:51;16.50;99.90
7216;DHT22;3649;48.798;9.798;2023-10-19T10:08:30;16.60;99.90
7216;DHT22;3649;48.798;9.798;2023-10-19T10:10:58;16.60;99.90
7216;DHT22;3649;48.798;9.798;2023-10-19T10:15:58;16.70;99.90
7216;DHT22;3649;48.798;9.798;2023-10-19T10:18:31;16.80;99.90
7216;DHT22;3649;48.798;9.798;2023-10-19T10:21:12;16.80;99.90
7216;DHT22;3649;48.798;9.798;2023-10-19T10:23:44;16.80;99.90
7216;DHT22;3649;48.798;9.798;2023-10-19T10:26:12;16.90;99.90
7216;DHT22;3649;48.798;9.798;2023-10-19T10:28:41;16.90;99.90
7216;DHT22;3649;48.798;9.798;2023-10-19T10:31:22;16.90;99.90
7216;DHT22;3649;48.798;9.798;2023-10-19T10:33:49;17.00;99.90
7216;DHT22;3649;48.798;9.798;2023-10-19T10:36:18;17.00;99.90
7216;DHT22;3649;48.798;9.798;2023-10-19T10:38:47;17.00;99.90
7216;DHT22;3649;48.798;9.798;2023-10-19T10:41:32;17.00;99.90
7216;DHT22;3649;48.798;9.798;2023-10-19T10:43:59;17.00;99.90
7216;DHT22;3649;48.798;9.798;2023-10-19T10:46:27;17.00;99.90
7216;DHT22;3649;48.798;9.798;2023-10-19T10:48:56;17.00;99.90
7216;DHT22;3649;48.798;9.798;2023-10-19T10:51:25;17.00;99.90
7216;DHT22;3649;48.798;9.798;2023-10-19T10:53:54;17.00;99.90
7216;DHT22;3649;48.798;9.798;2023-10-19T10:56:23;17.00;99.90
7216;DHT22;3649;48.798;9.798;2023-10-19T10:58:50;17.10;99.90
7216;DHT22;3649;48.798;9.798;2023-10-19T11:01:32;17.10;99.90
7216;DHT22;3649;48.798;9.798;2023-10-19T11:04:06;17.10;99.90
7216;DHT22;3649;48.798;9.798;2023-10-19T11:06:35;17.00;99.90
7216;DHT22;3649;48.798;9.798;2023-10-19T11:09:12;17.10;99.90
7216;DHT22;3649;48.798;9.798;2023-10-19T11:11:48;17.10;99.90
7216;DHT22;3649;48.798;9.798;2023-10-19T11:14:21;17.10;99.90
7216;DHT22;3649;48.798;9.798;2023-10-19T11:16:52;17.10;99.90
7216;DHT22;3649;48.798;9.798;2023-10-19T11:19:19;17.20;99.90
7216;DHT22;3649;48.798;9.798;2023-10-19T11:21:53;17.20;99.90
7216;DHT22;3649;48.798;9.798;2023-10-19T11:24:26;17.20;99.90
7216;DHT22;3649;48.798;9.798;2023-10-19T11:26:53;17.30;99.90
7216;DHT22;3649;48.798;9.798;2023-10-19T11:29:22;17.30;99.90
7216;DHT22;3649;48.798;9.798;2023-10-19T11:31:59;17.30;99.90
7216;DHT22;3649;48.798;9.798;2023-10-19T11:34:27;17.30;99.90
7216;DHT22;3649;48.798;9.798;2023-10-19T11:36:58;17.30;99.90
7216;DHT22;3649;48.798;9.798;2023-10-19T11:39:27;17.30;99.90
7216;DHT22;3649;48.798;9.798;2023-10-19T11:41:55;17.30;99.90
7216;DHT22;3649;48.798;9.798;2023-10-19T11:44:22;17.30;99.90
7216;DHT22;3649;48.798;9.798;2023-10-19T11:46:49;17.40;99.90
7216;DHT22;3649;48.798;9.798;2023-10-19T11:49:16;17.40;99.90
7216;DHT22;3649;48.798;9.798;2023-10-19T11:51:43;17.40;99.90
7216;DHT22;3649;48.798;9.798;2023-10-19T11:54:10;17.40;99.90
7216;DHT22;3649;48.798;9.798;2023-10-19T11:56:37;17.40;99.90
7216;DHT22;3649;48.798;9.798;2023-10-19T11:59:04;17.40;99.90
7216;DHT22;3649;48.798;9.798;2023-10-19T12:01:31;17.40;99.90
7216;DHT22;3649;48.798;9.798;2023-10-19T12:03:58;17.40;99.90
7216;DHT22;3649;48.798;9.798;2023-10-19T12:06:26;17.30;99.90
7216;DHT22;3649;48.798;9.798;2023-10-19T12:08:54;17.40;99.90
7216;DHT22;3649;48.798;9.798;2023-10-19T12:11:23;17.30;99.90
7216;DHT22;3649;48.798;9.798;2023-10-19T12:13:50;17.40;99.90
7216;DHT22;3649;48.798;9.798;2023-10-19T12:16:18;17.40;99.90
7216;DHT22;3649;48.798;9.798;2023-10-19T12:18:46;17.40;99.90
7216;DHT22;3649;48.798;9.798;2023-10-19T12:21:15;17.40;99.90
7216;DHT22;3649;48.798;9.798;2023-10-19T12:23:45;17.40;99.90
7216;DHT22;3649;48.798;9.798;2023-10-19T12:26:18;17.40;99.90
7216;DHT22;3649;48.798;9.798;2023-10-19T12:28:46;17.40;99.90
7216;DHT22;3649;48.798;9.798;2023-10-19T12:31:16;17.40;99.90
7216;DHT22;3649;48.798;9.798;2023-10-19T12:33:46;17.40;99.90
7216;DHT22;3649;48.798;9.798;2023-10-19T12:36:13;17.40;99.90
7216;DHT22;3649;48.798;9.798;2023-10-19T12:39:06;17.40;99.90
7216;DHT22;3649;48.798;9.798;2023-10-19T12:41:35;17.40;99.90
7216;DHT22;3649;48.798;9.798;2023-10-19T12:44:02;17.40;99.90
7216;DHT22;3649;48.798;9.798;2023-10-19T12:46:38;17.40;99.90
7216;DHT22;3649;48.798;9.798;2023-10-19T12:49:05;17.40;99.90
7216;DHT22;3649;48.798;9.798;2023-10-19T12:51:40;17.40;99.90
7216;DHT22;3649;48.798;9.798;2023-10-19T12:54:09;17.40;99.90
7216;DHT22;3649;48.798;9.798;2023-10-19T12:56:37;17.40;99.90
7216;DHT22;3649;48.798;9.798;2023-10-19T12:59:06;17.40;99.90
7216;DHT22;3649;48.798;9.798;2023-10-19T13:01:34;17.40;99.90
7216;DHT22;3649;48.798;9.798;2023-10-19T13:04:02;17.40;99.90
7216;DHT22;3649;48.798;9.798;2023-10-19T13:06:41;17.40;99.90
7216;DHT22;3649;48.798;9.798;2023-10-19T13:09:08;17.40;99.90
7216;DHT22;3649;48.798;9.798;2023-10-19T13:11:35;17.40;99.90
7216;DHT22;3649;48.798;9.798;2023-10-19T13:14:02;17.40;99.90
7216;DHT22;3649;48.798;9.798;2023-10-19T13:16:33;17.40;99.90
7216;DHT22;3649;48.798;9.798;2023-10-19T13:19:00;17.40;99.90
7216;DHT22;3649;48.798;9.798;2023-10-19T13:21:35;17.40;99.90
7216;DHT22;3649;48.798;9.798;2023-10-19T13:24:04;17.40;99.90
7216;DHT22;3649;48.798;9.798;2023-10-19T13:26:32;17.40;99.90
7216;DHT22;3649;48.798;9.798;2023-10-19T13:29:00;17.40;99.90
7216;DHT22;3649;48.798;9.798;2023-10-19T13:31:29;17.40;99.90
7216;DHT22;3649;48.798;9.798;2023-10-19T13:33:58;17.40;99.90
7216;DHT22;3649;48.798;9.798;2023-10-19T13:36:26;17.50;99.90
7216;DHT22;3649;48.798;9.798;2023-10-19T13:38:54;17.50;99.90
7216;DHT22;3649;48.798;9.798;2023-10-19T13:41:21;17.50;99.90
7216;DHT22;3649;48.798;9.798;2023-10-19T13:43:48;17.50;99.90
7216;DHT22;3649;48.798;9.798;2023-10-19T13:46:15;17.60;99.90
7216;DHT22;3649;48.798;9.798;2023-10-19T13:48:42;17.50;99.90
7216;DHT22;3649;48.798;9.798;2023-10-19T13:51:09;17.50;99.90
7216;DHT22;3649;48.798;9.798;2023-10-19T13:53:40;17.50;99.90
7216;DHT22;3649;48.798;9.798;2023-10-19T13:56:11;17.50;99.90
7216;DHT22;3649;48.798;9.798;2023-10-19T13:58:38;17.50;99.90
7216;DHT22;3649;48.798;9.798;2023-10-19T14:01:09;17.50;99.90
7216;DHT22;3649;48.798;9.798;2023-10-19T14:03:37;17.50;99.90
7216;DHT22;3649;48.798;9.798;2023-10-19T14:06:05;17.50;99.90
7216;DHT22;3649;48.798;9.798;2023-10-19T14:08:32;17.50;99.90
7216;DHT22;3649;48.798;9.798;2023-10-19T14:11:03;17.50;99.90
7216;DHT22;3649;48.798;9.798;2023-10-19T14:13:30;17.50;99.90
7216;DHT22;3649;48.798;9.798;2023-10-19T14:15:58;17.50;99.90
7216;DHT22;3649;48.798;9.798;2023-10-19T14:18:25;17.50;99.90
7216;DHT22;3649;48.798;9.798;2023-10-19T14:20:54;17.60;99.90
7216;DHT22;3649;48.798;9.798;2023-10-19T14:23:21;17.60;99.90
7216;DHT22;3649;48.798;9.798;2023-10-19T14:25:51;17.60;99.90
7216;DHT22;3649;48.798;9.798;2023-10-19T14:28:18;17.60;99.90
7216;DHT22;3649;48.798;9.798;2023-10-19T14:30:45;17.60;99.90
7216;DHT22;3649;48.798;9.798;2023-10-19T14:33:12;17.50;99.90
7216;DHT22;3649;48.798;9.798;2023-10-19T14:35:39;17.50;99.90
7216;DHT22;3649;48.798;9.798;2023-10-19T14:38:09;17.50;99.90
7216;DHT22;3649;48.798;9.798;2023-10-19T14:40:38;17.60;99.90
7216;DHT22;3649;48.798;9.798;2023-10-19T14:43:06;17.60;99.90
7216;DHT22;3649;48.798;9.798;2023-10-19T14:45:33;17.60;99.90
7216;DHT22;3649;48.798;9.798;2023-10-19T14:48:00;17.60;99.90
7216;DHT22;3649;48.798;9.798;2023-10-19T14:50:31;17.60;99.90
7216;DHT22;3649;48.798;9.798;2023-10-19T14:52:58;17.60;99.90
7216;DHT22;3649;48.798;9.798;2023-10-19T14:55:26;17.60;99.90
7216;DHT22;3649;48.798;9.798;2023-10-19T14:57:56;17.60;99.90
7216;DHT22;3649;48.798;9.798;2023-10-19T15:00:24;17.60;99.90
7216;DHT22;3649;48.798;9.798;2023-10-19T15:03:11;17.70;99.90
7216;DHT22;3649;48.798;9.798;2023-10-19T15:05:38;17.70;99.90
7216;DHT22;3649;48.798;9.798;2023-10-19T15:08:07;17.70;99.90
7216;DHT22;3649;48.798;9.798;2023-10-19T15:10:40;17.70;99.90
7216;DHT22;3649;48.798;9.798;2023-10-19T15:13:09;17.70;99.90
7216;DHT22;3649;48.798;9.798;2023-10-19T15:15:36;17.70;99.90
7216;DHT22;3649;48.798;9.798;2023-10-19T15:18:05;17.70;99.90
7216;DHT22;3649;48.798;9.798;2023-10-19T15:20:32;17.70;99.90
7216;DHT22;3649;48.798;9.798;2023-10-19T15:23:00;17.70;99.90
7216;DHT22;3649;48.798;9.798;2023-10-19T15:25:27;17.70;99.90
7216;DHT22;3649;48.798;9.798;2023-10-19T15:27:55;17.70;99.90
7216;DHT22;3649;48.798;9.798;2023-10-19T15:30:22;17.70;99.90
7216;DHT22;3649;48.798;9.798;2023-10-19T15:32:51;17.70;99.90
7216;DHT22;3649;48.798;9.798;2023-10-19T15:35:20;17.60;99.90
7216;DHT22;3649;48.798;9.798;2023-10-19T15:37:53;17.70;99.90
7216;DHT22;3649;48.798;9.798;2023-10-19T15:40:24;17.60;99.90
7216;DHT22;3649;48.798;9.798;2023-10-19T15:42:52;17.60;99.90
7216;DHT22;3649;48.798;9.798;2023-10-19T15:45:26;17.60;99.90
7216;DHT22;3649;48.798;9.798;2023-10-19T15:47:53;17.60;99.90
7216;DHT22;3649;48.798;9.798;2023-10-19T15:50:22;17.60;99.90
7216;DHT22;3649;48.798;9.798;2023-10-19T15:52:49;17.70;99.90
7216;DHT22;3649;48.798;9.798;2023-10-19T15:55:19;17.70;99.90
7216;DHT22;3649;48.798;9.798;2023-10-19T15:57:49;17.70;99.90
7216;DHT22;3649;48.798;9.798;2023-10-19T16:00:17;17.70;99.90
7216;DHT22;3649;48.798;9.798;2023-10-19T16:02:45;17.70;99.90
7216;DHT22;3649;48.798;9.798;2023-10-19T16:05:12;17.70;99.90
7216;DHT22;3649;48.798;9.798;2023-10-19T16:07:42;17.70;99.90
7216;DHT22;3649;48.798;9.798;2023-10-19T16:10:10;17.70;99.90
7216;DHT22;3649;48.798;9.798;2023-10-19T16:12:39;17.70;99.90
7216;DHT22;3649;48.798;9.798;2023-10-19T16:15:07;17.70;99.90
7216;DHT22;3649;48.798;9.798;2023-10-19T16:17:34;17.70;99.90
7216;DHT22;3649;48.798;9.798;2023-10-19T16:20:04;17.70;99.90
7216;DHT22;3649;48.798;9.798;2023-10-19T16:22:33;17.70;99.90
7216;DHT22;3649;48.798;9.798;2023-10-19T16:25:01;17.60;99.90
7216;DHT22;3649;48.798;9.798;2023-10-19T16:27:28;17.70;99.90
7216;DHT22;3649;48.798;9.798;2023-10-19T16:29:55;17.70;99.90
7216;DHT22;3649;48.798;9.798;2023-10-19T16:32:22;17.70;99.90
7216;DHT22;3649;48.798;9.798;2023-10-19T16:34:51;17.70;99.90